SFY1TM EGJJ-EGKR

Flight info

Callsign SFY1TM
Flight time 1h 6m
Altitude 7500
Route TORVI DCT GWC DCT EGKK
Aircraft DA42/L-SBDGRY/S

Departure

Time 2026-05-05 19:19
Airport Jersey Airport (EGJJ)

Arrival

Time 2026-05-05 20:25
Airport Redhill Aerodrome (EGKR)
Time Latitude Longitude Altitude Speed Heading
2026-05-05 19:05 49.20675 -2.18193 271 ft 0 kts 265°
2026-05-05 19:12 49.20674 -2.18216 271 ft 6 kts 270°
2026-05-05 19:12 49.20690 -2.18303 270 ft 9 kts 277°
2026-05-05 19:13 49.20696 -2.18424 266 ft 6 kts 275°
2026-05-05 19:13 49.20707 -2.18463 265 ft 3 kts 318°
2026-05-05 19:13 49.20735 -2.18466 265 ft 7 kts 60°
2026-05-05 19:13 49.20746 -2.18373 268 ft 12 kts 80°
2026-05-05 19:14 49.20786 -2.18320 269 ft 0 kts 358°
2026-05-05 19:14 49.20787 -2.18320 269 ft 0 kts 358°
2026-05-05 19:18 49.20820 -2.18339 269 ft 13 kts 328°
2026-05-05 19:18 49.20882 -2.18501 267 ft 23 kts 263°
2026-05-05 19:18 49.20860 -2.18749 266 ft 56 kts 262°
2026-05-05 19:18 49.20786 -2.19611 291 ft 99 kts 266°
2026-05-05 19:19 49.20684 -2.20698 546 ft 109 kts 265°
2026-05-05 19:19 49.20549 -2.21821 900 ft 110 kts 265°
2026-05-05 19:19 49.20702 -2.22975 999 ft 112 kts 309°
2026-05-05 19:19 49.21239 -2.23889 1010 ft 118 kts 321°
2026-05-05 19:20 49.21966 -2.24499 1008 ft 122 kts 339°
2026-05-05 19:20 49.22813 -2.24730 1004 ft 126 kts 358°
2026-05-05 19:20 49.23697 -2.24713 1003 ft 128 kts
2026-05-05 19:20 49.24602 -2.24663 993 ft 130 kts
2026-05-05 19:21 49.25505 -2.24600 1001 ft 129 kts
2026-05-05 19:21 49.26398 -2.24531 1005 ft 129 kts
2026-05-05 19:21 49.27287 -2.24421 997 ft 128 kts 15°
2026-05-05 19:21 49.28066 -2.23780 1004 ft 127 kts 30°
2026-05-05 19:22 49.28801 -2.23055 1098 ft 120 kts 31°
2026-05-05 19:22 49.29415 -2.22440 1463 ft 99 kts 31°
2026-05-05 19:22 49.29960 -2.21901 1902 ft 90 kts 31°
2026-05-05 19:22 49.30471 -2.21400 2260 ft 87 kts 31°
2026-05-05 19:23 49.30978 -2.20908 2588 ft 87 kts 31°
2026-05-05 19:23 49.31486 -2.20415 2924 ft 87 kts 31°
2026-05-05 19:23 49.31994 -2.19926 3257 ft 87 kts 31°
2026-05-05 19:23 49.32507 -2.19429 3582 ft 88 kts 31°
2026-05-05 19:24 49.33023 -2.18926 3895 ft 88 kts 30°
2026-05-05 19:24 49.33541 -2.18427 4215 ft 90 kts 31°
2026-05-05 19:24 49.34063 -2.17925 4536 ft 90 kts 31°
2026-05-05 19:24 49.34593 -2.17415 4863 ft 90 kts 31°
2026-05-05 19:25 49.35124 -2.16905 5184 ft 91 kts 31°
2026-05-05 19:25 49.35663 -2.16385 5509 ft 91 kts 31°
2026-05-05 19:25 49.36193 -2.15871 5828 ft 92 kts 31°
2026-05-05 19:25 49.36734 -2.15346 6152 ft 92 kts 31°
2026-05-05 19:26 49.37275 -2.14820 6458 ft 94 kts 31°
2026-05-05 19:26 49.37825 -2.14287 6771 ft 95 kts 31°
2026-05-05 19:26 49.38409 -2.13817 7088 ft 95 kts 15°
2026-05-05 19:26 49.39053 -2.13587 7369 ft 99 kts 13°
2026-05-05 19:27 49.39800 -2.13348 7442 ft 119 kts 12°
2026-05-05 19:27 49.40676 -2.13087 7455 ft 135 kts 12°
2026-05-05 19:27 49.41628 -2.12817 7444 ft 144 kts 11°
2026-05-05 19:27 49.42621 -2.12542 7440 ft 146 kts 11°
2026-05-05 19:28 49.43637 -2.12265 7441 ft 147 kts 11°
2026-05-05 19:28 49.44644 -2.11992 7442 ft 148 kts 11°
2026-05-05 19:28 49.45650 -2.11719 7435 ft 148 kts 11°
2026-05-05 19:28 49.46676 -2.11440 7441 ft 148 kts 11°
2026-05-05 19:29 49.47689 -2.11164 7444 ft 148 kts 12°
2026-05-05 19:29 49.48703 -2.10888 7443 ft 149 kts 11°
2026-05-05 19:29 49.49685 -2.10621 7443 ft 149 kts 11°
2026-05-05 19:29 49.50705 -2.10343 7443 ft 149 kts 11°
2026-05-05 19:30 49.51732 -2.10063 7440 ft 148 kts 11°
2026-05-05 19:30 49.52743 -2.09788 7450 ft 148 kts 11°
2026-05-05 19:30 49.53764 -2.09510 7446 ft 149 kts 11°
2026-05-05 19:30 49.54779 -2.09233 7445 ft 148 kts 11°
2026-05-05 19:31 49.55788 -2.08959 7440 ft 148 kts 11°
2026-05-05 19:31 49.56811 -2.08681 7454 ft 148 kts 11°
2026-05-05 19:31 49.57820 -2.08405 7450 ft 149 kts 11°
2026-05-05 19:31 49.58843 -2.08126 7450 ft 148 kts 11°
2026-05-05 19:32 49.59863 -2.07847 7449 ft 148 kts 11°
2026-05-05 19:32 49.60883 -2.07568 7446 ft 149 kts 11°
2026-05-05 19:32 49.61901 -2.07289 7448 ft 149 kts 11°
2026-05-05 19:32 49.62922 -2.07010 7449 ft 149 kts 11°
2026-05-05 19:33 49.63944 -2.06730 7446 ft 149 kts 11°
2026-05-05 19:33 49.64922 -2.06264 7442 ft 149 kts 30°
2026-05-05 19:33 49.65789 -2.05406 7439 ft 149 kts 32°
2026-05-05 19:33 49.66651 -2.04509 7444 ft 149 kts 33°
2026-05-05 19:34 49.67473 -2.03648 7445 ft 149 kts 33°
2026-05-05 19:34 49.68330 -2.02748 7443 ft 149 kts 33°
2026-05-05 19:34 49.69196 -2.01836 7445 ft 149 kts 33°
2026-05-05 19:35 49.70902 -2.00040 7444 ft 149 kts 33°
2026-05-05 19:35 49.71762 -1.99132 7444 ft 149 kts 33°
2026-05-05 19:35 49.72613 -1.98235 7443 ft 149 kts 33°
2026-05-05 19:35 49.73480 -1.97320 7440 ft 149 kts 33°
2026-05-05 19:36 49.74340 -1.96413 7440 ft 149 kts 33°
2026-05-05 19:36 49.75194 -1.95511 7440 ft 149 kts 33°
2026-05-05 19:36 49.76049 -1.94610 7444 ft 149 kts 33°
2026-05-05 19:36 49.76900 -1.93710 7444 ft 149 kts 33°
2026-05-05 19:37 49.77767 -1.92793 7444 ft 150 kts 33°
2026-05-05 19:37 49.78625 -1.91885 7444 ft 152 kts 33°
2026-05-05 19:37 49.79514 -1.90945 7444 ft 156 kts 33°
2026-05-05 19:37 49.80408 -1.89997 7441 ft 158 kts 33°
2026-05-05 19:38 49.81318 -1.89034 7439 ft 159 kts 33°
2026-05-05 19:38 49.82234 -1.88066 7438 ft 159 kts 33°
2026-05-05 19:38 49.83147 -1.87099 7438 ft 160 kts 33°
2026-05-05 19:38 49.84070 -1.86120 7438 ft 160 kts 34°
2026-05-05 19:39 49.84994 -1.85140 7438 ft 160 kts 34°
2026-05-05 19:39 49.85904 -1.84174 7441 ft 160 kts 34°
2026-05-05 19:39 49.86827 -1.83195 7440 ft 160 kts 34°
2026-05-05 19:39 49.87752 -1.82211 7437 ft 160 kts 34°
2026-05-05 19:40 49.88666 -1.81239 7435 ft 161 kts 34°
2026-05-05 19:40 49.89593 -1.80253 7431 ft 161 kts 33°
2026-05-05 19:40 49.90521 -1.79265 7427 ft 161 kts 33°
2026-05-05 19:40 49.91449 -1.78279 7424 ft 161 kts 33°
2026-05-05 19:41 49.92373 -1.77296 7423 ft 161 kts 33°
2026-05-05 19:41 49.93293 -1.76317 7423 ft 161 kts 34°
2026-05-05 19:41 49.94216 -1.75334 7423 ft 161 kts 34°
2026-05-05 19:41 49.95138 -1.74351 7422 ft 160 kts 34°
2026-05-05 19:42 49.96058 -1.73369 7422 ft 160 kts 34°
2026-05-05 19:42 49.96967 -1.72399 7423 ft 160 kts 34°
2026-05-05 19:42 49.97889 -1.71415 7422 ft 161 kts 34°
2026-05-05 19:42 49.98814 -1.70427 7422 ft 161 kts 34°
2026-05-05 19:43 49.99730 -1.69446 7422 ft 161 kts 34°
2026-05-05 19:43 50.00650 -1.68461 7422 ft 161 kts 33°
2026-05-05 19:43 50.01573 -1.67474 7423 ft 161 kts 33°
2026-05-05 19:43 50.02495 -1.66487 7426 ft 161 kts 33°
2026-05-05 19:44 50.03415 -1.65504 7428 ft 161 kts 33°
2026-05-05 19:44 50.04337 -1.64517 7429 ft 161 kts 34°
2026-05-05 19:44 50.05257 -1.63532 7432 ft 161 kts 34°
2026-05-05 19:44 50.06177 -1.62545 7436 ft 161 kts 34°
2026-05-05 19:45 50.07106 -1.61549 7436 ft 161 kts 34°
2026-05-05 19:45 50.08026 -1.60562 7436 ft 161 kts 34°
2026-05-05 19:45 50.08943 -1.59577 7436 ft 161 kts 34°
2026-05-05 19:45 50.09871 -1.58580 7437 ft 161 kts 34°
2026-05-05 19:46 50.10801 -1.57580 7440 ft 162 kts 34°
2026-05-05 19:46 50.11732 -1.56578 7440 ft 162 kts 34°
2026-05-05 19:46 50.12650 -1.55590 7440 ft 161 kts 34°
2026-05-05 19:46 50.13576 -1.54593 7442 ft 161 kts 34°
2026-05-05 19:47 50.14505 -1.53594 7441 ft 162 kts 34°
2026-05-05 19:47 50.15396 -1.52634 7439 ft 162 kts 34°
2026-05-05 19:47 50.16312 -1.51646 7437 ft 162 kts 34°
2026-05-05 19:47 50.17246 -1.50639 7439 ft 162 kts 34°
2026-05-05 19:48 50.18136 -1.49679 7437 ft 162 kts 34°
2026-05-05 19:48 50.19096 -1.48643 7437 ft 162 kts 34°
2026-05-05 19:48 50.20016 -1.47649 7439 ft 162 kts 34°
2026-05-05 19:48 50.20950 -1.46640 7440 ft 162 kts 34°
2026-05-05 19:49 50.21876 -1.45640 7440 ft 162 kts 34°
2026-05-05 19:49 50.22495 -1.44971 7440 ft 162 kts 34°
2026-05-05 19:49 50.23734 -1.43631 7440 ft 162 kts 34°
2026-05-05 19:49 50.24654 -1.42634 7439 ft 162 kts 34°
2026-05-05 19:50 50.25586 -1.41623 7440 ft 162 kts 34°
2026-05-05 19:50 50.26513 -1.40619 7438 ft 162 kts 34°
2026-05-05 19:50 50.27445 -1.39608 7438 ft 162 kts 34°
2026-05-05 19:50 50.28376 -1.38599 7436 ft 162 kts 34°
2026-05-05 19:51 50.29247 -1.37654 7438 ft 162 kts 34°
2026-05-05 19:51 50.30176 -1.36646 7441 ft 162 kts 34°
2026-05-05 19:51 50.31102 -1.35641 7445 ft 162 kts 34°
2026-05-05 19:51 50.32035 -1.34627 7448 ft 162 kts 34°
2026-05-05 19:52 50.32970 -1.33611 7448 ft 163 kts 35°
2026-05-05 19:52 50.33895 -1.32603 7448 ft 163 kts 35°
2026-05-05 19:52 50.34824 -1.31593 7448 ft 163 kts 34°
2026-05-05 19:52 50.35761 -1.30573 7447 ft 163 kts 35°
2026-05-05 19:53 50.36686 -1.29565 7448 ft 163 kts 34°
2026-05-05 19:53 50.37614 -1.28553 7448 ft 163 kts 35°
2026-05-05 19:53 50.38548 -1.27535 7448 ft 163 kts 34°
2026-05-05 19:53 50.39474 -1.26524 7447 ft 163 kts 34°
2026-05-05 19:54 50.40413 -1.25500 7447 ft 163 kts 34°
2026-05-05 19:54 50.41337 -1.24490 7447 ft 163 kts 34°
2026-05-05 19:54 50.42265 -1.23477 7446 ft 163 kts 34°
2026-05-05 19:54 50.43202 -1.22452 7446 ft 163 kts 34°
2026-05-05 19:55 50.44126 -1.21442 7446 ft 163 kts 34°
2026-05-05 19:55 50.45064 -1.20416 7447 ft 163 kts 34°
2026-05-05 19:55 50.45995 -1.19397 7446 ft 163 kts 34°
2026-05-05 19:55 50.46913 -1.18392 7447 ft 163 kts 34°
2026-05-05 19:56 50.47851 -1.17364 7447 ft 163 kts 34°
2026-05-05 19:56 50.48777 -1.16349 7446 ft 163 kts 34°
2026-05-05 19:56 50.49715 -1.15320 7450 ft 163 kts 34°
2026-05-05 19:56 50.50626 -1.14321 7510 ft 161 kts 34°
2026-05-05 19:57 50.51521 -1.13336 7498 ft 150 kts 34°
2026-05-05 19:57 50.52084 -1.12719 7164 ft 153 kts 34°
2026-05-05 19:57 50.53270 -1.11414 6258 ft 163 kts 35°
2026-05-05 19:57 50.54199 -1.10401 5672 ft 161 kts 35°
2026-05-05 19:58 50.55044 -1.09462 5511 ft 137 kts 35°
2026-05-05 19:58 50.55838 -1.08597 5507 ft 141 kts 36°
2026-05-05 19:58 50.56655 -1.07699 5505 ft 148 kts 35°
2026-05-05 19:58 50.57513 -1.06750 5500 ft 153 kts 36°
2026-05-05 19:59 50.58390 -1.05785 5500 ft 155 kts 35°
2026-05-05 19:59 50.59278 -1.04802 5504 ft 156 kts 35°
2026-05-05 19:59 50.60165 -1.03825 5507 ft 157 kts 35°
2026-05-05 19:59 50.61060 -1.02840 5510 ft 157 kts 37°
2026-05-05 20:00 50.61958 -1.01847 5503 ft 158 kts 35°
2026-05-05 20:00 50.62855 -1.00847 5495 ft 157 kts 35°
2026-05-05 20:00 50.63743 -0.99875 5501 ft 157 kts 34°
2026-05-05 20:00 50.64639 -0.98889 5496 ft 157 kts 34°
2026-05-05 20:01 50.65533 -0.97902 5498 ft 157 kts 35°
2026-05-05 20:01 50.66422 -0.96895 5496 ft 157 kts 34°
2026-05-05 20:01 50.67332 -0.95902 5499 ft 158 kts 35°
2026-05-05 20:01 50.68228 -0.94911 5511 ft 157 kts 36°
2026-05-05 20:02 50.69117 -0.93919 5509 ft 158 kts 34°
2026-05-05 20:02 50.70021 -0.92929 5509 ft 158 kts 35°
2026-05-05 20:02 50.70919 -0.91925 5504 ft 158 kts 35°
2026-05-05 20:02 50.71828 -0.90917 5504 ft 158 kts 34°
2026-05-05 20:03 50.72726 -0.89920 5455 ft 160 kts 36°
2026-05-05 20:03 50.73644 -0.88906 5399 ft 162 kts 35°
2026-05-05 20:03 50.74549 -0.87890 5249 ft 157 kts 36°
2026-05-05 20:03 50.75440 -0.86900 4903 ft 158 kts 37°
2026-05-05 20:04 50.76332 -0.85919 4523 ft 158 kts 36°
2026-05-05 20:04 50.77231 -0.84907 4158 ft 158 kts 37°
2026-05-05 20:04 50.78126 -0.83925 3798 ft 157 kts 38°
2026-05-05 20:04 50.79051 -0.82903 3547 ft 163 kts 37°
2026-05-05 20:05 50.79957 -0.81876 3515 ft 159 kts 34°
2026-05-05 20:05 50.80856 -0.80860 3496 ft 156 kts 36°
2026-05-05 20:05 50.81730 -0.79891 3502 ft 153 kts 36°
2026-05-05 20:05 50.82606 -0.78926 3506 ft 152 kts 37°
2026-05-05 20:06 50.83467 -0.77970 3500 ft 151 kts 35°
2026-05-05 20:06 50.84321 -0.77004 3528 ft 150 kts 35°
2026-05-05 20:06 50.85113 -0.75922 3503 ft 153 kts 58°
2026-05-05 20:06 50.85385 -0.74304 3513 ft 153 kts 75°
2026-05-05 20:07 50.85621 -0.72674 3510 ft 154 kts 76°
2026-05-05 20:07 50.85825 -0.71007 3491 ft 153 kts 76°
2026-05-05 20:07 50.86008 -0.69347 3508 ft 153 kts 76°
2026-05-05 20:07 50.86208 -0.67683 3510 ft 154 kts 76°
2026-05-05 20:08 50.86408 -0.66020 3503 ft 154 kts 75°
2026-05-05 20:08 50.86891 -0.64539 3507 ft 151 kts 52°
2026-05-05 20:08 50.87507 -0.63194 3501 ft 151 kts 52°
2026-05-05 20:08 50.88144 -0.61891 3490 ft 150 kts 51°
2026-05-05 20:09 50.88781 -0.60577 3527 ft 148 kts 50°
2026-05-05 20:09 50.89484 -0.59413 3538 ft 148 kts 45°
2026-05-05 20:09 50.90207 -0.58229 3559 ft 149 kts 44°
2026-05-05 20:09 50.90951 -0.57074 3557 ft 150 kts 44°
2026-05-05 20:10 50.91684 -0.55880 3548 ft 151 kts 45°
2026-05-05 20:10 50.92435 -0.54735 3540 ft 150 kts 39°
2026-05-05 20:10 50.93374 -0.53976 3547 ft 150 kts 27°
2026-05-05 20:10 50.94326 -0.53317 3554 ft 151 kts 23°
2026-05-05 20:11 50.95311 -0.52692 3547 ft 151 kts 22°
2026-05-05 20:11 50.96293 -0.52088 3515 ft 153 kts 22°
2026-05-05 20:11 50.97287 -0.51487 3501 ft 152 kts 22°
2026-05-05 20:11 50.98266 -0.50896 3498 ft 152 kts 22°
2026-05-05 20:12 50.99260 -0.50299 3500 ft 151 kts 22°
2026-05-05 20:12 51.00239 -0.49709 3499 ft 151 kts 22°
2026-05-05 20:12 51.01220 -0.49117 3502 ft 150 kts 22°
2026-05-05 20:12 51.02195 -0.48529 3460 ft 153 kts 22°
2026-05-05 20:13 51.03198 -0.47922 3388 ft 155 kts 22°
2026-05-05 20:13 51.04213 -0.47310 3339 ft 156 kts 22°
2026-05-05 20:13 51.05233 -0.46695 3277 ft 156 kts 22°
2026-05-05 20:13 51.06255 -0.46078 3226 ft 157 kts 22°
2026-05-05 20:14 51.07267 -0.45468 3187 ft 156 kts 22°
2026-05-05 20:14 51.08290 -0.44850 3147 ft 155 kts 22°
2026-05-05 20:14 51.09283 -0.44212 3097 ft 155 kts 28°
2026-05-05 20:14 51.10107 -0.43146 3028 ft 150 kts 49°
2026-05-05 20:15 51.10689 -0.41840 3001 ft 138 kts 44°
2026-05-05 20:15 51.11374 -0.40893 2981 ft 123 kts 36°
2026-05-05 20:15 51.11879 -0.39840 2791 ft 124 kts 66°
2026-05-05 20:15 51.12045 -0.38506 2543 ft 125 kts 79°
2026-05-05 20:16 51.12160 -0.37173 2341 ft 117 kts 73°
2026-05-05 20:16 51.12354 -0.35964 2217 ft 110 kts 71°
2026-05-05 20:16 51.12575 -0.34784 2031 ft 110 kts 70°
2026-05-05 20:16 51.12764 -0.33611 1869 ft 109 kts 73°
2026-05-05 20:17 51.12915 -0.32411 1694 ft 110 kts 74°
2026-05-05 20:17 51.13054 -0.31283 1555 ft 111 kts 76°
2026-05-05 20:17 51.13237 -0.30103 1397 ft 111 kts 73°
2026-05-05 20:17 51.13444 -0.28926 1231 ft 106 kts 72°
2026-05-05 20:18 51.13618 -0.27816 1106 ft 102 kts 76°
2026-05-05 20:18 51.13758 -0.26709 972 ft 102 kts 76°
2026-05-05 20:18 51.13916 -0.25599 841 ft 103 kts 76°
2026-05-05 20:18 51.14085 -0.24475 701 ft 105 kts 74°
2026-05-05 20:19 51.14221 -0.23329 566 ft 105 kts 78°
2026-05-05 20:19 51.14383 -0.22190 440 ft 108 kts 73°
2026-05-05 20:19 51.14549 -0.21038 251 ft 104 kts 78°
2026-05-05 20:19 51.14682 -0.19993 194 ft 89 kts 78°
2026-05-05 20:20 51.14830 -0.18927 332 ft 107 kts 78°
2026-05-05 20:20 51.14913 -0.17751 640 ft 110 kts 73°
2026-05-05 20:20 51.15138 -0.16563 905 ft 115 kts 73°
2026-05-05 20:20 51.15502 -0.15493 1209 ft 109 kts 32°
2026-05-05 20:21 51.16253 -0.15269 1326 ft 118 kts
2026-05-05 20:21 51.17115 -0.15159 1381 ft 126 kts
2026-05-05 20:21 51.18017 -0.15089 1373 ft 131 kts
2026-05-05 20:21 51.18945 -0.14942 1206 ft 135 kts 12°
2026-05-05 20:22 51.19836 -0.14532 1116 ft 133 kts 18°
2026-05-05 20:22 51.20751 -0.14211 990 ft 134 kts
2026-05-05 20:22 51.21691 -0.14260 906 ft 133 kts 360°
2026-05-05 20:22 51.22550 -0.14441 971 ft 118 kts 356°
2026-05-05 20:23 51.23338 -0.14680 969 ft 116 kts 352°
2026-05-05 20:23 51.24068 -0.15150 1026 ft 118 kts 308°
2026-05-05 20:23 51.24213 -0.16484 1123 ft 129 kts 269°
2026-05-05 20:23 51.23860 -0.17821 1120 ft 137 kts 217°
2026-05-05 20:24 51.22989 -0.18112 1139 ft 130 kts 159°
2026-05-05 20:24 51.22232 -0.17433 951 ft 122 kts 139°
2026-05-05 20:24 51.21510 -0.16795 826 ft 115 kts 144°
2026-05-05 20:24 51.20978 -0.15919 560 ft 105 kts 91°
2026-05-05 20:25 51.21220 -0.14931 324 ft 89 kts 73°
2026-05-05 20:25 51.21324 -0.14064 204 ft 67 kts 82°
2026-05-05 20:25 51.21395 -0.13644 203 ft 10 kts 80°
2026-05-05 20:25 51.21396 -0.13632 203 ft 0 kts 81°